sensor_id;sensor_type;location;lat;lon;timestamp;P1;durP1;ratioP1;P2;durP2;ratioP2
12072;SDS011;6098;49.004;8.372;2023-02-18T00:02:54;1.62;;;1.50;;
12072;SDS011;6098;49.004;8.372;2023-02-18T00:17:47;2.76;;;2.19;;
12072;SDS011;6098;49.004;8.372;2023-02-18T00:32:38;3.93;;;2.53;;
12072;SDS011;6098;49.004;8.372;2023-02-18T00:47:32;2.82;;;2.00;;
12072;SDS011;6098;49.004;8.372;2023-02-18T01:02:26;2.17;;;1.77;;
12072;SDS011;6098;49.004;8.372;2023-02-18T01:17:19;2.48;;;2.20;;
12072;SDS011;6098;49.004;8.372;2023-02-18T01:32:12;2.36;;;2.10;;
12072;SDS011;6098;49.004;8.372;2023-02-18T01:47:03;3.42;;;2.81;;
12072;SDS011;6098;49.004;8.372;2023-02-18T02:01:57;3.44;;;2.96;;
12072;SDS011;6098;49.004;8.372;2023-02-18T02:32:15;5.28;;;3.67;;
12072;SDS011;6098;49.004;8.372;2023-02-18T02:47:25;4.08;;;3.68;;
12072;SDS011;6098;49.004;8.372;2023-02-18T03:02:30;6.08;;;3.89;;
12072;SDS011;6098;49.004;8.372;2023-02-18T03:32:48;6.20;;;3.68;;
12072;SDS011;6098;49.004;8.372;2023-02-18T03:47:41;6.12;;;3.91;;
12072;SDS011;6098;49.004;8.372;2023-02-18T04:02:34;5.17;;;3.61;;
12072;SDS011;6098;49.004;8.372;2023-02-18T04:17:31;4.23;;;3.52;;
12072;SDS011;6098;49.004;8.372;2023-02-18T04:32:24;4.60;;;3.57;;
12072;SDS011;6098;49.004;8.372;2023-02-18T04:47:16;4.58;;;3.38;;
12072;SDS011;6098;49.004;8.372;2023-02-18T05:02:08;4.02;;;3.20;;
12072;SDS011;6098;49.004;8.372;2023-02-18T05:17:01;4.38;;;2.86;;
12072;SDS011;6098;49.004;8.372;2023-02-18T05:31:53;4.06;;;3.31;;
12072;SDS011;6098;49.004;8.372;2023-02-18T05:46:46;3.92;;;3.14;;
12072;SDS011;6098;49.004;8.372;2023-02-18T06:01:39;3.49;;;3.04;;
12072;SDS011;6098;49.004;8.372;2023-02-18T06:16:30;3.18;;;2.72;;
12072;SDS011;6098;49.004;8.372;2023-02-18T06:31:25;4.19;;;2.59;;
12072;SDS011;6098;49.004;8.372;2023-02-18T06:46:18;4.04;;;2.44;;
12072;SDS011;6098;49.004;8.372;2023-02-18T07:01:10;2.54;;;2.33;;
12072;SDS011;6098;49.004;8.372;2023-02-18T07:16:03;2.78;;;2.46;;
12072;SDS011;6098;49.004;8.372;2023-02-18T07:30:59;3.62;;;2.27;;
12072;SDS011;6098;49.004;8.372;2023-02-18T07:45:54;2.98;;;2.20;;
12072;SDS011;6098;49.004;8.372;2023-02-18T08:00:48;2.89;;;2.40;;
12072;SDS011;6098;49.004;8.372;2023-02-18T08:15:42;2.46;;;1.82;;
12072;SDS011;6098;49.004;8.372;2023-02-18T08:30:36;2.22;;;1.93;;
12072;SDS011;6098;49.004;8.372;2023-02-18T08:45:29;2.14;;;1.80;;
12072;SDS011;6098;49.004;8.372;2023-02-18T09:00:22;2.39;;;1.39;;
12072;SDS011;6098;49.004;8.372;2023-02-18T09:15:14;2.58;;;1.63;;
12072;SDS011;6098;49.004;8.372;2023-02-18T09:30:08;1.77;;;1.61;;
12072;SDS011;6098;49.004;8.372;2023-02-18T09:45:06;2.48;;;1.98;;
12072;SDS011;6098;49.004;8.372;2023-02-18T09:59:59;2.63;;;1.54;;
12072;SDS011;6098;49.004;8.372;2023-02-18T10:14:53;1.91;;;1.58;;
12072;SDS011;6098;49.004;8.372;2023-02-18T10:29:45;2.36;;;1.70;;
12072;SDS011;6098;49.004;8.372;2023-02-18T10:59:39;2.68;;;2.42;;
12072;SDS011;6098;49.004;8.372;2023-02-18T11:14:43;2.64;;;2.07;;
12072;SDS011;6098;49.004;8.372;2023-02-18T11:29:35;3.21;;;2.34;;
12072;SDS011;6098;49.004;8.372;2023-02-18T11:59:24;3.88;;;2.80;;
12072;SDS011;6098;49.004;8.372;2023-02-18T12:14:18;2.97;;;2.67;;
12072;SDS011;6098;49.004;8.372;2023-02-18T12:44:30;3.51;;;3.12;;
12072;SDS011;6098;49.004;8.372;2023-02-18T13:14:56;4.17;;;2.62;;
12072;SDS011;6098;49.004;8.372;2023-02-18T13:29:50;5.02;;;3.46;;
12072;SDS011;6098;49.004;8.372;2023-02-18T13:59:57;2.78;;;1.26;;
12072;SDS011;6098;49.004;8.372;2023-02-18T14:14:52;1.83;;;1.50;;
12072;SDS011;6098;49.004;8.372;2023-02-18T14:29:45;1.67;;;1.22;;
12072;SDS011;6098;49.004;8.372;2023-02-18T14:59:46;1.94;;;1.40;;
12072;SDS011;6098;49.004;8.372;2023-02-18T15:14:37;1.18;;;1.08;;
12072;SDS011;6098;49.004;8.372;2023-02-18T15:29:30;1.38;;;1.28;;
12072;SDS011;6098;49.004;8.372;2023-02-18T15:44:28;1.71;;;1.37;;
12072;SDS011;6098;49.004;8.372;2023-02-18T16:29:33;3.27;;;1.87;;
12072;SDS011;6098;49.004;8.372;2023-02-18T16:44:24;2.63;;;2.02;;
12072;SDS011;6098;49.004;8.372;2023-02-18T16:59:16;2.44;;;2.17;;
12072;SDS011;6098;49.004;8.372;2023-02-18T17:14:08;2.42;;;2.22;;
12072;SDS011;6098;49.004;8.372;2023-02-18T17:29:04;4.93;;;2.60;;
12072;SDS011;6098;49.004;8.372;2023-02-18T17:43:56;3.04;;;2.68;;
12072;SDS011;6098;49.004;8.372;2023-02-18T17:58:50;3.23;;;2.76;;
12072;SDS011;6098;49.004;8.372;2023-02-18T18:13:41;2.53;;;2.33;;
12072;SDS011;6098;49.004;8.372;2023-02-18T18:28:34;2.90;;;2.28;;
12072;SDS011;6098;49.004;8.372;2023-02-18T18:43:27;3.32;;;2.49;;
12072;SDS011;6098;49.004;8.372;2023-02-18T18:58:18;2.97;;;2.68;;
12072;SDS011;6098;49.004;8.372;2023-02-18T19:13:16;2.92;;;2.38;;
12072;SDS011;6098;49.004;8.372;2023-02-18T19:28:08;3.64;;;3.24;;
12072;SDS011;6098;49.004;8.372;2023-02-18T19:43:01;4.36;;;3.18;;
12072;SDS011;6098;49.004;8.372;2023-02-18T19:57:52;4.21;;;3.42;;
12072;SDS011;6098;49.004;8.372;2023-02-18T20:12:42;4.22;;;3.47;;
12072;SDS011;6098;49.004;8.372;2023-02-18T20:27:35;5.32;;;4.10;;
12072;SDS011;6098;49.004;8.372;2023-02-18T20:42:30;5.34;;;4.08;;
12072;SDS011;6098;49.004;8.372;2023-02-18T20:57:21;4.17;;;3.76;;
12072;SDS011;6098;49.004;8.372;2023-02-18T21:12:11;4.68;;;3.97;;
12072;SDS011;6098;49.004;8.372;2023-02-18T21:27:03;5.11;;;4.53;;
12072;SDS011;6098;49.004;8.372;2023-02-18T21:41:55;5.78;;;4.72;;
12072;SDS011;6098;49.004;8.372;2023-02-18T21:56:49;5.33;;;4.69;;
12072;SDS011;6098;49.004;8.372;2023-02-18T22:11:42;4.71;;;4.14;;
12072;SDS011;6098;49.004;8.372;2023-02-18T22:26:34;6.29;;;4.52;;
12072;SDS011;6098;49.004;8.372;2023-02-18T22:41:28;5.80;;;4.67;;
12072;SDS011;6098;49.004;8.372;2023-02-18T22:56:22;5.83;;;4.07;;
12072;SDS011;6098;49.004;8.372;2023-02-18T23:11:15;4.91;;;3.97;;
12072;SDS011;6098;49.004;8.372;2023-02-18T23:26:07;5.02;;;4.51;;
12072;SDS011;6098;49.004;8.372;2023-02-18T23:40:59;5.49;;;4.23;;
12072;SDS011;6098;49.004;8.372;2023-02-18T23:55:59;4.36;;;3.96;;
